Time;durP1;ratioP1;P1;durP2;ratioP2;P2;SDS_P1;SDS_P2;PMS_P1;PMS_P2;Temp;Humidity;BMP_temperature;BMP_pressure;BME280_temperature;BME280_humidity;BME280_pressure;Samples;Min_cycle;Max_cycle;Signal;HPM_P1;HPM_P2
2021/06/05 00:04:39;;;;;;;6.40;3.03;;;22.10;34.80;;;;;;10443139;28;20267;-79
2021/06/05 00:09:43;;;;;;;3.30;3.00;;;22.10;34.60;;;;;;10429880;28;20752;-78
2021/06/05 00:14:47;;;;;;;3.37;3.10;;;22.10;34.80;;;;;;10439310;28;20713;-79
2021/06/05 00:19:49;;;;;;;3.83;3.10;;;22.10;34.90;;;;;;10439806;28;20225;-78
2021/06/05 00:24:52;;;;;;;4.60;3.07;;;22.10;34.80;;;;;;10446782;28;20228;-78
2021/06/05 00:29:56;;;;;;;3.77;2.50;;;22.10;34.80;;;;;;10441809;28;20231;-79
2021/06/05 00:34:59;;;;;;;3.33;3.03;;;22.10;34.80;;;;;;10444974;28;20235;-78
2021/06/05 00:40:02;;;;;;;5.37;3.50;;;22.20;34.70;;;;;;10440536;28;20343;-78
2021/06/05 00:45:10;;;;;;;3.67;3.37;;;22.20;35.00;;;;;;10435463;28;20236;-78
2021/06/05 00:50:14;;;;;;;3.40;3.20;;;22.10;35.90;;;;;;10435106;28;20332;-78
2021/06/05 00:55:19;;;;;;;3.50;3.20;;;22.10;35.10;;;;;;10438648;28;20225;-78
2021/06/05 01:00:30;;;;;;;3.17;2.90;;;22.10;35.50;;;;;;10439038;28;20682;-79
2021/06/05 01:05:35;;;;;;;3.80;3.40;;;22.10;36.00;;;;;;10441464;28;20221;-79
2021/06/05 01:10:41;;;;;;;3.10;2.90;;;22.10;35.60;;;;;;10437659;28;20240;-79
2021/06/05 01:15:51;;;;;;;3.60;3.30;;;22.10;35.60;;;;;;10438827;28;20229;-78
2021/06/05 01:21:08;;;;;;;3.60;3.30;;;22.00;36.50;;;;;;10429879;28;20226;-79
2021/06/05 01:26:19;;;;;;;4.40;3.50;;;22.00;36.80;;;;;;10432346;28;20231;-79
2021/06/05 01:31:27;;;;;;;3.33;3.13;;;22.00;37.00;;;;;;10418963;28;20254;-79
2021/06/05 01:36:30;;;;;;;2.87;2.67;;;21.90;36.70;;;;;;10436410;28;20316;-79
2021/06/05 01:41:36;;;;;;;3.50;3.20;;;21.80;35.80;;;;;;10435225;28;20233;-79
2021/06/05 01:46:42;;;;;;;3.80;3.50;;;21.80;36.90;;;;;;10432392;28;20786;-79
2021/06/05 01:51:48;;;;;;;3.67;3.30;;;21.80;37.20;;;;;;10430114;28;20316;-78
2021/06/05 01:56:56;;;;;;;3.93;3.63;;;21.70;37.10;;;;;;10443827;28;20233;-79
2021/06/05 02:02:00;;;;;;;4.00;3.70;;;21.70;38.00;;;;;;10439189;28;20240;-79
2021/06/05 02:07:06;;;;;;;3.90;3.67;;;21.60;37.10;;;;;;10436454;28;20236;-78
2021/06/05 02:12:15;;;;;;;3.97;3.57;;;21.60;37.90;;;;;;10440500;28;20316;-79
2021/06/05 02:17:19;;;;;;;4.33;4.03;;;21.70;38.00;;;;;;10429907;28;20264;-79
2021/06/05 02:22:25;;;;;;;4.60;4.30;;;21.60;37.70;;;;;;10433022;28;20342;-78
2021/06/05 02:27:31;;;;;;;4.50;4.10;;;21.50;37.80;;;;;;10438660;28;20717;-78
2021/06/05 02:32:34;;;;;;;4.17;3.87;;;21.50;37.80;;;;;;10443672;28;20225;-79
2021/06/05 02:37:37;;;;;;;4.87;4.47;;;21.50;37.90;;;;;;10434089;28;20233;-79
2021/06/05 02:42:42;;;;;;;4.27;3.97;;;21.50;37.80;;;;;;10438450;28;20225;-78
2021/06/05 02:47:53;;;;;;;4.37;3.97;;;21.50;37.80;;;;;;10441408;28;20723;-78
2021/06/05 02:52:56;;;;;;;4.70;4.30;;;21.50;38.90;;;;;;10440411;28;20222;-78
2021/06/05 02:58:01;;;;;;;4.67;4.27;;;21.50;37.80;;;;;;10433296;28;20267;-78
2021/06/05 03:03:06;;;;;;;4.50;4.10;;;21.50;38.70;;;;;;10433930;28;20392;-79
2021/06/05 03:08:12;;;;;;;4.53;4.23;;;21.40;38.20;;;;;;10436051;28;20240;-79
2021/06/05 03:13:18;;;;;;;5.83;4.40;;;21.30;39.30;;;;;;10441612;28;20229;-79
2021/06/05 03:18:22;;;;;;;4.93;4.50;;;21.30;39.20;;;;;;10446833;28;20229;-79
2021/06/05 03:23:29;;;;;;;4.97;4.57;;;21.20;39.20;;;;;;10425968;28;20247;-80
2021/06/05 03:28:34;;;;;;;5.30;4.80;;;21.20;39.10;;;;;;10443371;28;20229;-79
2021/06/05 03:33:37;;;;;;;4.50;4.13;;;21.20;39.80;;;;;;10439045;28;20308;-79
2021/06/05 03:38:41;;;;;;;5.03;4.63;;;21.20;38.80;;;;;;10438521;28;20225;-79
2021/06/05 03:43:45;;;;;;;5.93;5.43;;;21.10;38.80;;;;;;10439141;28;20226;-79
2021/06/05 03:48:48;;;;;;;5.37;4.87;;;21.10;39.70;;;;;;10427144;28;20222;-79
2021/06/05 03:53:51;;;;;;;5.77;5.27;;;21.10;39.20;;;;;;10432577;28;20638;-79
2021/06/05 03:58:55;;;;;;;5.77;5.27;;;21.00;39.30;;;;;;10432999;28;20218;-79
2021/06/05 04:03:58;;;;;;;5.93;5.27;;;21.10;40.20;;;;;;10434840;28;20304;-79
2021/06/05 04:09:00;;;;;;;5.47;5.07;;;21.10;40.40;;;;;;10428506;28;20775;-79
2021/06/05 04:14:05;;;;;;;5.40;5.00;;;21.10;39.70;;;;;;10426633;28;20232;-80
2021/06/05 04:19:08;;;;;;;6.00;5.50;;;21.10;40.30;;;;;;10434246;28;20323;-79
2021/06/05 04:24:10;;;;;;;6.60;6.00;;;21.10;39.70;;;;;;10438320;28;20342;-79
2021/06/05 04:29:14;;;;;;;6.63;6.13;;;21.10;39.70;;;;;;10435602;28;20307;-79
2021/06/05 04:34:17;;;;;;;7.57;6.97;;;21.10;40.50;;;;;;10437991;28;20233;-79
2021/06/05 04:39:20;;;;;;;7.90;7.30;;;21.10;40.10;;;;;;10445707;28;20247;-80
2021/06/05 04:44:25;;;;;;;7.13;6.53;;;21.10;40.30;;;;;;10427613;28;20331;-79
2021/06/05 04:49:27;;;;;;;7.07;6.47;;;21.00;40.80;;;;;;10435465;28;20308;-79
2021/06/05 04:54:30;;;;;;;8.20;7.40;;;21.10;40.40;;;;;;10429707;28;20239;-79
2021/06/05 04:59:34;;;;;;;7.63;7.03;;;21.10;40.50;;;;;;10437207;28;20237;-79
2021/06/05 05:04:37;;;;;;;7.03;6.53;;;21.10;41.00;;;;;;10437913;28;20235;-80
2021/06/05 05:09:40;;;;;;;6.40;5.90;;;21.10;40.40;;;;;;10436395;28;20308;-77
2021/06/05 05:14:44;;;;;;;5.97;5.47;;;21.10;40.30;;;;;;10434760;28;20721;-77
2021/06/05 05:19:47;;;;;;;5.87;5.47;;;21.10;40.50;;;;;;10427675;28;20224;-77
2021/06/05 05:24:49;;;;;;;5.30;4.90;;;21.20;40.20;;;;;;10425969;28;20233;-77
2021/06/05 05:29:57;;;;;;;5.17;4.67;;;21.10;40.10;;;;;;10434989;28;20236;-77
2021/06/05 05:35:01;;;;;;;4.50;4.10;;;21.20;40.60;;;;;;10427683;28;20233;-77
2021/06/05 05:40:06;;;;;;;4.93;4.53;;;21.30;40.30;;;;;;10434429;28;20226;-77
2021/06/05 05:45:12;;;;;;;4.67;4.30;;;21.30;40.60;;;;;;10419787;28;20635;-77
2021/06/05 05:50:18;;;;;;;4.00;3.60;;;21.50;41.00;;;;;;10430875;28;20324;-77
2021/06/05 05:55:20;;;;;;;4.63;4.23;;;21.50;40.90;;;;;;10423521;28;20220;-76
2021/06/05 06:00:28;;;;;;;4.30;4.00;;;21.70;40.60;;;;;;10429606;28;20320;-77
2021/06/05 06:05:31;;;;;;;5.80;4.17;;;21.80;41.30;;;;;;10434857;28;20698;-76
2021/06/05 06:10:34;;;;;;;4.80;4.30;;;22.00;40.80;;;;;;10437720;28;20620;-76
2021/06/05 06:15:39;;;;;;;4.17;3.87;;;22.10;40.80;;;;;;10438765;28;20237;-77
2021/06/05 06:20:45;;;;;;;3.80;3.50;;;22.20;41.00;;;;;;10434053;28;20279;-77
2021/06/05 06:25:49;;;;;;;3.87;3.43;;;22.30;40.80;;;;;;10436772;28;20225;-76
2021/06/05 06:30:55;;;;;;;4.07;2.97;;;22.50;40.60;;;;;;10433964;28;20316;-77
2021/06/05 06:35:58;;;;;;;2.93;2.73;;;22.70;40.30;;;;;;10430790;28;20276;-77
2021/06/05 06:41:06;;;;;;;2.40;2.27;;;22.90;40.40;;;;;;10437536;28;20240;-76
2021/06/05 06:46:17;;;;;;;2.30;2.10;;;23.10;40.10;;;;;;10435507;28;20235;-77
2021/06/05 06:51:20;;;;;;;2.50;2.30;;;23.20;39.30;;;;;;10436871;28;20232;-77
2021/06/05 06:56:24;;;;;;;3.00;2.30;;;23.30;39.40;;;;;;10431194;28;20233;-77
2021/06/05 07:01:28;;;;;;;2.50;2.30;;;23.50;39.60;;;;;;10437586;28;20249;-77
2021/06/05 07:06:31;;;;;;;2.27;2.13;;;23.60;39.30;;;;;;10436895;28;20233;-78
2021/06/05 07:11:36;;;;;;;3.27;2.27;;;23.70;39.50;;;;;;10433721;28;20251;-78
2021/06/05 07:16:41;;;;;;;2.87;2.67;;;23.90;39.10;;;;;;10435143;28;20497;-79
2021/06/05 07:21:44;;;;;;;2.70;2.50;;;24.00;38.40;;;;;;10433879;28;20228;-79
2021/06/05 07:26:47;;;;;;;2.87;2.30;;;24.10;38.20;;;;;;10435630;28;20221;-78
2021/06/05 07:31:52;;;;;;;4.27;2.23;;;24.20;38.20;;;;;;10426079;28;20779;-77
2021/06/05 07:37:01;;;;;;;2.43;2.23;;;24.30;38.10;;;;;;10431196;28;20231;-77
2021/06/05 07:42:06;;;;;;;2.40;2.30;;;24.40;38.10;;;;;;10436100;28;20766;-70
2021/06/05 07:47:10;;;;;;;3.20;2.00;;;24.50;37.60;;;;;;10433821;28;20591;-77
2021/06/05 07:52:13;;;;;;;2.13;1.93;;;24.60;37.60;;;;;;10434657;28;20596;-77
2021/06/05 07:57:16;;;;;;;2.77;2.23;;;24.70;37.90;;;;;;10430306;28;20230;-77
2021/06/05 08:02:20;;;;;;;2.60;2.40;;;24.80;36.50;;;;;;10438985;28;20251;-77
2021/06/05 08:07:23;;;;;;;2.53;2.00;;;24.90;36.30;;;;;;10429123;28;20700;-76
2021/06/05 08:12:26;;;;;;;2.07;1.90;;;25.00;36.90;;;;;;10435779;28;20233;-76
2021/06/05 08:17:30;;;;;;;1.93;1.83;;;25.10;37.00;;;;;;10438425;28;20293;-76
2021/06/05 08:22:33;;;;;;;2.03;1.87;;;25.30;36.20;;;;;;10438440;28;20224;-76
2021/06/05 08:27:37;;;;;;;2.00;1.90;;;25.40;36.40;;;;;;10441562;28;20316;-76
2021/06/05 08:32:41;;;;;;;3.13;1.87;;;25.60;36.10;;;;;;10431252;28;20235;-76
2021/06/05 08:37:44;;;;;;;2.00;1.90;;;25.80;35.40;;;;;;10440654;28;20721;-76
2021/06/05 08:42:49;;;;;;;2.07;1.90;;;25.90;35.30;;;;;;10421732;28;20224;-75
2021/06/05 08:47:54;;;;;;;2.47;1.67;;;26.00;35.30;;;;;;10425594;28;20243;-75
2021/06/05 08:53:03;;;;;;;1.77;1.67;;;26.10;34.90;;;;;;10421359;28;20412;-75
2021/06/05 08:58:27;;;;;;;1.90;1.73;;;26.10;34.00;;;;;;10425752;28;20233;-76
2021/06/05 09:03:34;;;;;;;1.50;1.40;;;26.20;34.00;;;;;;10423913;28;20328;-75
2021/06/05 09:08:36;;;;;;;1.60;1.50;;;26.40;34.50;;;;;;10427311;28;20224;-75
2021/06/05 09:13:45;;;;;;;1.70;1.60;;;26.60;34.60;;;;;;10425670;28;20240;-75
2021/06/05 09:18:51;;;;;;;1.40;1.30;;;26.80;34.10;;;;;;10421626;28;20231;-75
2021/06/05 09:24:09;;;;;;;1.60;1.50;;;27.00;32.80;;;;;;10421574;28;20231;-77
2021/06/05 09:29:15;;;;;;;1.30;1.20;;;27.10;33.00;;;;;;10425390;28;20588;-77
2021/06/05 09:34:20;;;;;;;1.80;1.70;;;27.20;32.40;;;;;;10429377;28;20237;-77
2021/06/05 09:39:41;;;;;;;1.63;1.53;;;27.30;31.70;;;;;;10432300;28;20697;-77
2021/06/05 09:44:47;;;;;;;1.50;1.40;;;27.30;31.40;;;;;;10446578;28;20228;-77
2021/06/05 09:49:58;;;;;;;1.37;1.27;;;27.20;31.10;;;;;;10438805;28;20638;-79
2021/06/05 09:55:32;;;;;;;2.70;1.60;;;27.20;31.30;;;;;;10436715;28;20301;-77
2021/06/05 10:00:38;;;;;;;3.20;1.90;;;27.20;31.60;;;;;;10446569;28;20657;-79
2021/06/05 10:05:44;;;;;;;2.73;1.90;;;27.20;31.50;;;;;;10432958;28;20238;-77
2021/06/05 10:10:50;;;;;;;2.10;1.97;;;27.20;32.20;;;;;;10432458;28;20312;-76
2021/06/05 10:15:56;;;;;;;1.80;1.70;;;27.30;32.10;;;;;;10440421;28;20869;-77
2021/06/05 10:21:08;;;;;;;2.33;1.80;;;27.40;31.80;;;;;;10430598;28;20641;-76
2021/06/05 10:26:21;;;;;;;2.20;2.00;;;27.50;31.60;;;;;;10427734;28;20259;-76
2021/06/05 10:31:25;;;;;;;2.07;1.97;;;27.60;30.50;;;;;;10430799;28;20236;-77
2021/06/05 10:36:34;;;;;;;2.27;1.53;;;27.60;30.40;;;;;;10433391;28;20233;-77
2021/06/05 10:41:41;;;;;;;1.90;1.60;;;27.40;29.90;;;;;;10429412;28;20236;-76
2021/06/05 10:46:57;;;;;;;1.57;1.47;;;27.30;30.80;;;;;;10427255;28;20229;-76
2021/06/05 10:52:09;;;;;;;2.17;1.40;;;27.20;30.70;;;;;;10426640;28;20224;-76
2021/06/05 10:57:34;;;;;;;2.10;1.40;;;27.20;30.70;;;;;;10435541;28;20260;-76
2021/06/05 11:02:41;;;;;;;1.50;1.40;;;27.30;30.30;;;;;;10431822;28;20225;-76
2021/06/05 11:07:48;;;;;;;3.93;1.50;;;27.40;30.70;;;;;;10433385;28;20309;-76
2021/06/05 11:12:53;;;;;;;2.13;1.50;;;27.50;31.70;;;;;;10435723;28;20282;-76
2021/06/05 11:18:25;;;;;;;1.50;1.40;;;27.60;31.30;;;;;;10435410;28;20222;-77
2021/06/05 11:23:31;;;;;;;1.53;1.43;;;27.70;30.00;;;;;;10436484;28;20221;-77
2021/06/05 11:28:48;;;;;;;1.57;1.40;;;27.80;30.00;;;;;;10430311;28;20610;-75
2021/06/05 11:33:51;;;;;;;1.67;1.50;;;27.80;30.10;;;;;;10439110;28;20259;-81
2021/06/05 11:38:59;;;;;;;1.73;1.40;;;27.70;30.00;;;;;;10424031;28;20287;-75
2021/06/05 11:44:27;;;;;;;1.73;1.57;;;27.70;29.80;;;;;;10431337;28;20283;-80
2021/06/05 11:49:45;;;;;;;1.90;1.70;;;27.70;30.00;;;;;;10435545;28;20240;-81
2021/06/05 11:54:50;;;;;;;1.77;1.67;;;27.60;29.20;;;;;;10442898;28;20217;-77
2021/06/05 11:59:56;;;;;;;1.70;1.60;;;27.50;29.70;;;;;;10437871;28;20308;-77
2021/06/05 12:05:04;;;;;;;1.40;1.30;;;27.50;30.00;;;;;;10441207;28;20726;-77
2021/06/05 12:10:12;;;;;;;1.57;1.47;;;27.40;30.00;;;;;;10433980;28;20226;-77
2021/06/05 12:15:20;;;;;;;2.07;1.97;;;27.50;30.00;;;;;;10428790;28;20226;-77
2021/06/05 12:20:27;;;;;;;3.50;2.00;;;27.50;29.50;;;;;;10432612;28;20300;-77
2021/06/05 12:25:34;;;;;;;2.17;1.97;;;27.50;30.00;;;;;;10437095;28;20225;-77
2021/06/05 12:30:41;;;;;;;2.20;2.00;;;27.60;30.00;;;;;;10435801;28;20299;-80
2021/06/05 12:35:46;;;;;;;2.87;2.60;;;27.60;30.00;;;;;;10434942;28;20344;-75
2021/06/05 12:40:57;;;;;;;2.97;2.73;;;27.60;30.00;;;;;;10428768;28;20229;-75
2021/06/05 12:46:01;;;;;;;2.50;2.30;;;27.70;30.00;;;;;;10426578;28;20701;-75
2021/06/05 12:51:07;;;;;;;2.07;1.97;;;27.70;30.70;;;;;;10426216;28;20225;-75
2021/06/05 12:56:34;;;;;;;2.40;2.20;;;27.70;30.00;;;;;;10423833;28;20642;-77
2021/06/05 13:01:41;;;;;;;4.77;2.27;;;27.70;29.70;;;;;;10426022;28;20225;-76
2021/06/05 13:06:57;;;;;;;1.63;1.50;;;27.70;29.30;;;;;;10426657;28;20313;-75
2021/06/05 13:12:04;;;;;;;2.07;1.50;;;27.60;28.10;;;;;;10430336;28;20216;-76
2021/06/05 13:17:17;;;;;;;1.50;1.40;;;27.60;28.60;;;;;;10430588;28;20723;-77
2021/06/05 13:22:23;;;;;;;1.50;1.30;;;27.50;28.50;;;;;;10429571;28;20221;-78
2021/06/05 13:27:29;;;;;;;2.87;1.17;;;27.60;29.20;;;;;;10444918;28;20225;-78
2021/06/05 13:32:43;;;;;;;1.50;1.40;;;27.70;28.80;;;;;;10437600;28;20229;-76
2021/06/05 13:37:56;;;;;;;2.60;1.80;;;27.80;28.80;;;;;;10436785;28;20228;-80
2021/06/05 13:43:01;;;;;;;3.67;2.30;;;27.90;28.80;;;;;;10436153;28;20232;-79
2021/06/05 13:48:05;;;;;;;2.90;2.70;;;27.90;28.90;;;;;;10434970;28;20239;-79
2021/06/05 13:53:11;;;;;;;2.60;2.40;;;28.00;29.10;;;;;;10429161;28;20231;-79
2021/06/05 13:58:15;;;;;;;2.40;2.20;;;28.10;29.10;;;;;;10429578;28;20241;-79
2021/06/05 14:03:20;;;;;;;2.57;2.37;;;28.10;29.20;;;;;;10429633;28;20239;-79
2021/06/05 14:08:23;;;;;;;3.07;2.77;;;28.20;29.40;;;;;;10435118;28;20741;-79
2021/06/05 14:13:28;;;;;;;3.53;3.23;;;28.20;29.00;;;;;;10439589;28;20729;-79
2021/06/05 14:18:31;;;;;;;2.90;2.70;;;28.20;29.00;;;;;;10426284;28;20274;-79
2021/06/05 14:23:35;;;;;;;2.67;2.47;;;28.10;29.30;;;;;;10436720;28;20230;-80
2021/06/05 14:28:42;;;;;;;3.23;2.60;;;28.10;29.30;;;;;;10441289;28;20223;-79
2021/06/05 14:33:45;;;;;;;3.47;2.87;;;28.10;29.60;;;;;;10439249;28;20228;-79
2021/06/05 14:38:49;;;;;;;2.80;2.60;;;28.10;29.70;;;;;;10441182;28;20317;-79
2021/06/05 14:43:53;;;;;;;2.97;2.77;;;28.20;29.70;;;;;;10441132;28;20227;-79
2021/06/05 14:48:56;;;;;;;2.73;2.50;;;28.20;29.40;;;;;;10445668;28;20248;-77
2021/06/05 14:53:58;;;;;;;2.73;2.53;;;28.30;29.20;;;;;;10437227;28;20716;-77
2021/06/05 14:59:03;;;;;;;2.50;2.30;;;28.30;28.60;;;;;;10436179;28;20225;-77
2021/06/05 15:04:07;;;;;;;2.80;2.60;;;28.20;29.00;;;;;;10427204;28;20225;-76
2021/06/05 15:09:11;;;;;;;3.03;2.30;;;28.20;29.00;;;;;;10432292;28;20335;-75
2021/06/05 15:14:15;;;;;;;2.50;2.13;;;28.20;29.00;;;;;;10437799;28;20237;-75
2021/06/05 15:19:17;;;;;;;2.87;2.67;;;28.20;28.80;;;;;;10423677;28;20237;-75
2021/06/05 15:24:20;;;;;;;2.40;2.20;;;28.10;28.90;;;;;;10430049;28;20229;-75
2021/06/05 15:29:25;;;;;;;2.43;1.80;;;27.90;28.80;;;;;;10428138;28;20252;-75
2021/06/05 15:34:28;;;;;;;1.67;1.50;;;27.70;28.50;;;;;;10429346;28;20597;-74
2021/06/05 15:39:31;;;;;;;1.70;1.60;;;27.60;28.60;;;;;;10432083;28;20766;-74
2021/06/05 15:44:35;;;;;;;2.00;1.80;;;27.50;28.50;;;;;;10428321;28;20263;-75
2021/06/05 15:49:38;;;;;;;36.17;29.60;;;27.40;28.90;;;;;;10425078;28;20224;-75
2021/06/05 15:54:41;;;;;;;7.50;6.80;;;27.20;29.30;;;;;;10431603;28;20229;-75
2021/06/05 15:59:45;;;;;;;4.40;3.53;;;27.20;29.60;;;;;;10417865;28;20233;-75
2021/06/05 16:04:48;;;;;;;3.50;3.20;;;27.20;29.50;;;;;;10427939;28;20239;-75
2021/06/05 16:09:50;;;;;;;5.37;4.50;;;27.10;29.80;;;;;;10430920;28;20225;-77
2021/06/05 16:14:54;;;;;;;7.53;4.83;;;27.00;29.70;;;;;;10431819;28;20634;-77
2021/06/05 16:19:57;;;;;;;3.80;3.50;;;26.90;29.70;;;;;;10438983;28;20233;-77
2021/06/05 16:25:00;;;;;;;6.90;6.23;;;26.80;29.60;;;;;;10441979;28;20229;-77
2021/06/05 16:30:07;;;;;;;5.60;5.00;;;26.60;29.50;;;;;;10426940;28;20228;-77
2021/06/05 16:35:11;;;;;;;2.40;2.30;;;26.50;29.90;;;;;;10445586;28;20315;-77
2021/06/05 16:40:14;;;;;;;2.00;1.90;;;26.40;30.00;;;;;;10421483;28;20232;-76
2021/06/05 16:45:21;;;;;;;2.17;2.00;;;26.30;30.40;;;;;;10425254;28;20721;-76
2021/06/05 16:50:27;;;;;;;2.93;2.00;;;26.30;30.90;;;;;;10423280;28;20573;-76
2021/06/05 16:55:31;;;;;;;2.10;2.00;;;26.30;30.60;;;;;;10435576;28;20316;-76
2021/06/05 17:00:37;;;;;;;2.00;1.90;;;26.30;31.00;;;;;;10429401;28;20220;-75
2021/06/05 17:05:41;;;;;;;8.60;7.73;;;26.30;31.10;;;;;;10422508;28;20224;-74
2021/06/05 17:10:44;;;;;;;4.57;3.97;;;26.30;31.20;;;;;;10423071;28;20780;-77
2021/06/05 17:15:49;;;;;;;2.37;1.90;;;26.20;31.10;;;;;;10429574;28;20237;-76
2021/06/05 17:20:53;;;;;;;1.80;1.70;;;26.10;31.30;;;;;;10426846;28;20237;-74
2021/06/05 17:25:58;;;;;;;2.20;2.00;;;26.00;31.00;;;;;;10428072;28;20231;-75
2021/06/05 17:31:02;;;;;;;1.90;1.63;;;25.90;30.90;;;;;;10427986;28;20764;-76
2021/06/05 17:36:06;;;;;;;1.20;1.20;;;25.80;30.60;;;;;;10435164;28;20233;-76
2021/06/05 17:41:12;;;;;;;1.47;1.10;;;25.70;30.50;;;;;;10434379;28;20225;-76
2021/06/05 17:46:16;;;;;;;1.00;0.93;;;25.40;30.30;;;;;;10432007;28;20231;-75
2021/06/05 17:51:24;;;;;;;1.37;0.90;;;25.20;30.50;;;;;;10425115;28;20585;-75
2021/06/05 17:56:27;;;;;;;0.80;0.80;;;24.90;30.90;;;;;;10427286;28;20224;-75
2021/06/05 18:01:33;;;;;;;1.27;1.00;;;24.70;31.10;;;;;;10431686;28;20233;-75
2021/06/05 18:06:36;;;;;;;2.47;1.00;;;24.50;31.70;;;;;;10432829;28;20784;-75
2021/06/05 18:11:41;;;;;;;0.90;0.90;;;24.20;31.70;;;;;;10426992;28;20260;-75
2021/06/05 18:16:48;;;;;;;2.17;1.10;;;24.00;31.80;;;;;;10431750;28;20233;-75
2021/06/05 18:21:56;;;;;;;1.47;1.10;;;23.90;32.10;;;;;;10442839;28;20308;-77
2021/06/05 18:26:59;;;;;;;1.40;1.30;;;23.80;32.10;;;;;;10443000;28;20214;-76
2021/06/05 18:32:07;;;;;;;1.03;1.03;;;23.50;32.30;;;;;;10439405;28;20233;-77
2021/06/05 18:37:11;;;;;;;1.03;1.00;;;23.30;33.00;;;;;;10442137;28;20225;-76
2021/06/05 18:42:16;;;;;;;1.20;1.00;;;23.30;32.90;;;;;;10445996;28;20243;-77
2021/06/05 18:47:25;;;;;;;1.30;1.20;;;23.30;33.20;;;;;;10445769;28;20228;-77
2021/06/05 18:52:28;;;;;;;0.90;0.90;;;23.20;33.20;;;;;;10445868;28;21791;-76
2021/06/05 18:57:31;;;;;;;1.30;1.17;;;23.00;33.10;;;;;;10444011;28;20233;-76
2021/06/05 19:02:35;;;;;;;1.20;1.10;;;22.90;33.20;;;;;;10441788;28;20719;-77
2021/06/05 19:07:38;;;;;;;1.20;1.20;;;22.70;33.90;;;;;;10434844;28;20224;-77
2021/06/05 19:12:47;;;;;;;1.00;1.00;;;22.60;33.90;;;;;;10443499;28;20231;-77
2021/06/05 19:17:52;;;;;;;1.10;1.10;;;22.50;34.10;;;;;;10434750;28;20236;-74
2021/06/05 19:22:56;;;;;;;1.13;1.13;;;22.40;34.50;;;;;;10431301;28;20224;-77
2021/06/05 19:28:00;;;;;;;1.50;1.40;;;22.30;34.30;;;;;;10438898;28;20217;-77
2021/06/05 19:33:08;;;;;;;1.50;1.40;;;22.10;34.70;;;;;;10443805;28;20701;-77
2021/06/05 19:38:11;;;;;;;1.30;1.30;;;22.00;35.50;;;;;;10450720;28;20316;-75
2021/06/05 19:43:15;;;;;;;1.50;1.40;;;21.90;34.90;;;;;;10427965;28;20623;-75
2021/06/05 19:48:20;;;;;;;1.23;1.20;;;21.80;35.30;;;;;;10425023;28;20313;-75
2021/06/05 19:53:27;;;;;;;1.40;1.30;;;21.70;35.90;;;;;;10424879;28;20229;-76
2021/06/05 19:58:33;;;;;;;1.13;1.13;;;21.70;35.70;;;;;;10423659;28;20324;-76
2021/06/05 20:03:38;;;;;;;1.50;1.40;;;21.70;35.80;;;;;;10425977;28;20226;-76
2021/06/05 20:08:41;;;;;;;2.40;1.13;;;21.70;35.80;;;;;;10427708;28;20221;-76
2021/06/05 20:13:44;;;;;;;1.53;1.33;;;21.70;35.40;;;;;;10428186;28;20341;-75
2021/06/05 20:18:51;;;;;;;1.43;1.33;;;21.70;35.50;;;;;;10431062;28;20233;-75
2021/06/05 20:23:53;;;;;;;1.10;1.10;;;21.70;36.00;;;;;;10427697;28;20225;-75
2021/06/05 20:28:56;;;;;;;1.20;1.20;;;21.70;35.40;;;;;;10427167;28;20307;-75
2021/06/05 20:34:01;;;;;;;1.07;1.07;;;21.80;35.40;;;;;;10430856;28;20228;-75
2021/06/05 20:39:06;;;;;;;1.57;1.47;;;21.80;35.80;;;;;;10427249;28;20228;-78
2021/06/05 20:44:08;;;;;;;1.87;1.10;;;21.80;35.70;;;;;;10426085;28;20235;-78
2021/06/05 20:49:13;;;;;;;1.30;1.20;;;21.80;35.50;;;;;;10430728;28;20605;-78
2021/06/05 20:54:17;;;;;;;1.00;1.00;;;21.80;36.10;;;;;;10432238;28;20336;-77
2021/06/05 20:59:21;;;;;;;1.47;1.37;;;21.80;35.80;;;;;;10422414;28;20233;-77
2021/06/05 21:04:25;;;;;;;1.23;1.13;;;21.70;35.60;;;;;;10419211;28;20244;-77
2021/06/05 21:09:29;;;;;;;1.50;1.40;;;21.70;36.20;;;;;;10427430;28;20251;-77
2021/06/05 21:14:31;;;;;;;1.20;1.20;;;21.60;36.00;;;;;;10420849;28;20321;-77
2021/06/05 21:19:35;;;;;;;1.10;1.10;;;21.60;36.00;;;;;;10424460;28;20765;-77
2021/06/05 21:24:38;;;;;;;1.30;1.30;;;21.60;36.40;;;;;;10422090;28;20773;-77
2021/06/05 21:29:41;;;;;;;1.30;1.20;;;21.50;36.20;;;;;;10420528;28;20308;-77
2021/06/05 21:34:45;;;;;;;1.90;1.60;;;21.40;36.30;;;;;;10424034;28;20229;-77
2021/06/05 21:39:48;;;;;;;1.50;1.40;;;21.30;36.70;;;;;;10422635;28;20229;-77
2021/06/05 21:44:50;;;;;;;1.60;1.50;;;21.20;36.30;;;;;;10422168;28;20316;-77
2021/06/05 21:49:54;;;;;;;1.60;1.50;;;21.20;36.40;;;;;;10419103;28;20228;-77
2021/06/05 21:54:58;;;;;;;1.60;1.50;;;21.20;36.60;;;;;;10419723;28;20723;-77
2021/06/05 22:00:01;;;;;;;1.80;1.70;;;21.10;36.40;;;;;;10419486;28;20328;-77
2021/06/05 22:05:06;;;;;;;1.63;1.53;;;21.00;36.50;;;;;;10421715;28;20256;-77
2021/06/05 22:10:09;;;;;;;1.80;1.70;;;20.90;37.30;;;;;;10420329;28;20229;-77
2021/06/05 22:15:13;;;;;;;1.80;1.70;;;20.70;37.10;;;;;;10417548;28;20229;-77
2021/06/05 22:20:21;;;;;;;2.03;1.90;;;20.60;37.00;;;;;;10420740;28;20228;-76
2021/06/05 22:25:24;;;;;;;1.53;1.43;;;20.60;37.00;;;;;;10420540;28;20604;-76
2021/06/05 22:30:31;;;;;;;2.00;1.53;;;20.50;36.90;;;;;;10419014;28;20279;-76
2021/06/05 22:35:35;;;;;;;2.03;1.70;;;20.50;36.90;;;;;;10419133;28;20678;-76
2021/06/05 22:40:38;;;;;;;1.83;1.73;;;20.60;37.00;;;;;;10419338;28;20237;-76
2021/06/05 22:45:40;;;;;;;2.03;1.83;;;20.50;36.90;;;;;;10427757;28;20232;-76
2021/06/05 22:50:45;;;;;;;1.73;1.60;;;20.40;36.90;;;;;;10427452;28;21090;-76
2021/06/05 22:55:49;;;;;;;1.80;1.70;;;20.30;36.80;;;;;;10425754;28;20226;-76
2021/06/05 23:00:54;;;;;;;1.47;1.37;;;20.20;36.70;;;;;;10429221;28;20229;-76
2021/06/05 23:05:59;;;;;;;1.60;1.50;;;20.20;37.20;;;;;;10424584;28;20311;-76
2021/06/05 23:11:03;;;;;;;1.47;1.37;;;20.10;37.50;;;;;;10423321;28;20235;-76
2021/06/05 23:16:06;;;;;;;1.57;1.47;;;20.10;37.20;;;;;;10427689;28;20225;-76
2021/06/05 23:21:14;;;;;;;1.10;1.10;;;20.00;37.40;;;;;;10429601;28;20632;-76
2021/06/05 23:26:17;;;;;;;1.40;1.30;;;19.80;38.10;;;;;;10426501;28;20267;-76
2021/06/05 23:31:19;;;;;;;1.07;1.03;;;19.80;37.70;;;;;;10425243;28;20814;-75
2021/06/05 23:36:24;;;;;;;1.40;1.30;;;19.90;37.70;;;;;;10430320;28;20237;-76
2021/06/05 23:41:30;;;;;;;1.13;1.13;;;19.90;38.10;;;;;;10429207;28;20229;-76
2021/06/05 23:46:33;;;;;;;1.50;1.40;;;19.90;38.30;;;;;;10424502;28;20228;-76
2021/06/05 23:51:38;;;;;;;1.40;1.20;;;19.80;37.80;;;;;;10416404;28;20332;-76
2021/06/05 23:56:41;;;;;;;1.53;1.43;;;19.80;38.30;;;;;;10421662;28;20225;-76
